Time;durP1;ratioP1;P1;durP2;ratioP2;P2;SDS_P1;SDS_P2;PMS_P1;PMS_P2;Temp;Humidity;BMP_temperature;BMP_pressure;BME280_temperature;BME280_humidity;BME280_pressure;Samples;Min_cycle;Max_cycle;Signal;HPM_P1;HPM_P2
2022/10/02 00:02:18;;;;;;;;;;;;;;;17.15;70.11;100208.78;5033440;28;929;-61
2022/10/02 00:04:49;;;;;;;;;;;;;;;17.16;70.12;100215.13;5033183;28;996;-62
2022/10/02 00:07:17;;;;;;;;;;;;;;;17.16;70.03;100217.88;5033048;28;1209;-62
2022/10/02 00:09:51;;;;;;;;;;;;;;;17.15;70.01;100219.03;5033220;28;854;-62
2022/10/02 00:12:18;;;;;;;;;;;;;;;17.15;70.83;100214.31;5033255;28;2081;-62
2022/10/02 00:14:45;;;;;;;;;;;;;;;17.18;70.38;100215.59;5033256;28;786;-62
2022/10/02 00:17:22;;;;;;;;;;;;;;;17.17;70.89;100212.03;5032775;28;1326;-62
2022/10/02 00:19:51;;;;;;;;;;;;;;;17.03;69.88;100186.53;5033192;28;1959;-62
2022/10/02 00:22:19;;;;;;;;;;;;;;;17.18;71.07;100207.31;5033232;28;1063;-62
2022/10/02 00:24:44;;;;;;;;;;;;;;;17.17;70.40;100203.72;5033160;28;1031;-61
2022/10/02 00:27:26;;;;;;;;;;;;;;;17.17;69.79;100206.50;5032832;28;1180;-61
2022/10/02 00:29:52;;;;;;;;;;;;;;;17.16;69.90;100202.09;5033149;28;1008;-62
2022/10/02 00:32:24;;;;;;;;;;;;;;;17.18;70.66;100208.09;5033190;28;810;-62
2022/10/02 00:34:52;;;;;;;;;;;;;;;17.17;70.86;100203.72;5033152;28;1144;-61
2022/10/02 00:37:32;;;;;;;;;;;;;;;17.17;69.83;100209.25;5032721;28;1591;-61
2022/10/02 00:40:23;;;;;;;;;;;;;;;17.17;70.97;100203.72;5032932;28;1898;-62
2022/10/02 00:43:09;;;;;;;;;;;;;;;17.17;69.75;100212.03;5032888;28;1287;-62
2022/10/02 00:46:01;;;;;;;;;;;;;;;17.18;70.17;100212.84;5032915;28;1213;-62
2022/10/02 00:48:42;;;;;;;;;;;;;;;17.17;69.76;100211.22;5032870;28;921;-60
2022/10/02 00:51:11;;;;;;;;;;;;;;;17.18;70.48;100221.13;5032927;28;877;-60
2022/10/02 00:53:55;;;;;;;;;;;;;;;17.18;70.22;100219.16;5032962;28;940;-60
2022/10/02 00:56:29;;;;;;;;;;;;;;;17.18;70.13;100218.38;5032455;28;1271;-60
2022/10/02 00:59:02;;;;;;;;;;;;;;;17.18;70.62;100229.44;5032730;28;851;-59
2022/10/02 01:01:50;;;;;;;;;;;;;;;17.17;70.08;100236.09;5032942;28;1902;-60
2022/10/02 01:04:21;;;;;;;;;;;;;;;17.17;70.81;100233.34;5024640;28;1853;-60
2022/10/02 01:06:47;;;;;;;;;;;;;;;17.16;70.20;100242.78;5032439;28;1245;-60
2022/10/02 01:09:12;;;;;;;;;;;;;;;17.16;70.07;100227.00;5033974;28;1039;-60
2022/10/02 01:11:38;;;;;;;;;;;;;;;17.17;70.52;100236.09;5036478;28;972;-60
2022/10/02 01:14:03;;;;;;;;;;;;;;;17.16;70.64;100240.81;5036480;28;881;-60
2022/10/02 01:16:30;;;;;;;;;;;;;;;17.16;70.69;100234.47;5036238;28;1210;-60
2022/10/02 01:18:55;;;;;;;;;;;;;;;17.17;70.36;100236.09;5036429;28;805;-60
2022/10/02 01:21:28;;;;;;;;;;;;;;;17.16;70.70;100234.47;5036295;28;1894;-60
2022/10/02 01:24:12;;;;;;;;;;;;;;;17.15;70.55;100241.97;5036177;28;1044;-60
2022/10/02 01:26:38;;;;;;;;;;;;;;;17.15;69.99;100236.44;5035925;28;1294;-60
2022/10/02 01:29:03;;;;;;;;;;;;;;;17.16;70.65;100231.72;5036146;28;1247;-60
2022/10/02 01:31:28;;;;;;;;;;;;;;;17.15;70.85;100230.09;5036105;28;1043;-60
2022/10/02 01:33:54;;;;;;;;;;;;;;;17.15;70.24;100230.09;5036087;28;996;-60
2022/10/02 01:36:19;;;;;;;;;;;;;;;17.15;70.69;100230.09;5035688;28;1224;-59
2022/10/02 01:38:46;;;;;;;;;;;;;;;17.15;70.80;100230.09;5036021;28;829;-60
2022/10/02 01:41:11;;;;;;;;;;;;;;;17.15;70.30;100235.63;5035968;28;1897;-60
2022/10/02 01:43:39;;;;;;;;;;;;;;;17.15;70.88;100235.63;5035866;28;1066;-60
2022/10/02 01:46:22;;;;;;;;;;;;;;;17.15;69.76;100238.38;5035487;28;1204;-60
2022/10/02 01:49:05;;;;;;;;;;;;;;;17.14;70.39;100234.81;5035705;28;852;-60
2022/10/02 01:51:50;;;;;;;;;;;;;;;17.15;69.95;100235.63;5035849;28;1000;-60
2022/10/02 01:54:33;;;;;;;;;;;;;;;17.15;69.80;100235.63;5035847;28;963;-60
2022/10/02 01:57:07;;;;;;;;;;;;;;;17.14;70.30;100234.81;5035261;28;1224;-60
2022/10/02 01:59:44;;;;;;;;;;;;;;;17.14;70.18;100239.53;5035550;28;1973;-60
2022/10/02 02:02:27;;;;;;;;;;;;;;;17.13;70.22;100244.25;5035559;28;1038;-60
2022/10/02 02:04:58;;;;;;;;;;;;;;;17.14;70.13;100236.75;5035520;28;808;-59
2022/10/02 02:07:29;;;;;;;;;;;;;;;17.14;70.56;100239.53;5035196;28;1065;-59
2022/10/02 02:10:00;;;;;;;;;;;;;;;17.13;69.87;100233.19;5035408;28;817;-59
2022/10/02 02:12:42;;;;;;;;;;;;;;;17.13;70.86;100247.00;5035557;28;815;-58
2022/10/02 02:15:28;;;;;;;;;;;;;;;17.13;70.64;100237.91;5035281;28;1225;-59
2022/10/02 02:17:53;;;;;;;;;;;;;;;17.14;69.94;100240.34;5034576;28;1165;-59
2022/10/02 02:20:24;;;;;;;;;;;;;;;17.13;69.91;100235.13;5034846;28;1910;-60
2022/10/02 02:22:51;;;;;;;;;;;;;;;17.13;70.39;100238.72;5035235;28;1043;-60
2022/10/02 02:25:27;;;;;;;;;;;;;;;17.13;70.87;100249.78;5035164;28;1229;-59
2022/10/02 02:27:57;;;;;;;;;;;;;;;17.12;70.15;100244.56;5034805;28;996;-60
2022/10/02 02:30:23;;;;;;;;;;;;;;;17.13;70.03;100247.00;5034969;28;1067;-59
2022/10/02 02:32:53;;;;;;;;;;;;;;;17.13;70.39;100249.78;5035023;28;1067;-59
2022/10/02 02:35:27;;;;;;;;;;;;;;;17.13;70.68;100244.25;5035151;28;1310;-60
2022/10/02 02:37:54;;;;;;;;;;;;;;;17.13;70.31;100241.47;5033469;28;901;-59
2022/10/02 02:40:23;;;;;;;;;;;;;;;17.12;70.83;100242.63;5034837;28;1963;-59
2022/10/02 02:42:53;;;;;;;;;;;;;;;17.12;70.84;100250.91;5034925;28;888;-61
2022/10/02 02:45:20;;;;;;;;;;;;;;;17.12;70.46;100245.38;5034726;28;1207;-61
2022/10/02 02:47:54;;;;;;;;;;;;;;;17.12;69.67;100241.81;5034492;28;908;-61
2022/10/02 02:50:26;;;;;;;;;;;;;;;17.12;69.92;100244.56;5034651;28;1078;-61
2022/10/02 02:52:58;;;;;;;;;;;;;;;17.11;70.38;100238.22;5034632;28;952;-61
2022/10/02 02:55:46;;;;;;;;;;;;;;;17.12;70.74;100247.34;5075709;23;1666;-72
2022/10/02 02:58:17;;;;;;;;;;;;;;;17.11;69.58;100252.03;5009997;28;2010;-70
2022/10/02 03:00:42;;;;;;;;;;;;;;;17.13;70.08;100254.50;5009618;28;1974;-69
2022/10/02 03:03:07;;;;;;;;;;;;;;;17.12;70.31;100250.91;4995078;28;849;-70
2022/10/02 03:05:34;;;;;;;;;;;;;;;17.11;70.92;100252.03;5004736;28;1225;-70
2022/10/02 03:08:02;;;;;;;;;;;;;;;17.12;70.56;100253.69;5014296;28;995;-70
2022/10/02 03:10:33;;;;;;;;;;;;;;;17.12;70.15;100255.63;5014531;28;1062;-70
2022/10/02 03:13:18;;;;;;;;;;;;;;;17.12;69.85;100242.63;5014540;28;972;-70
2022/10/02 03:15:53;;;;;;;;;;;;;;;17.01;70.54;100230.31;5013818;28;1264;-71
2022/10/02 03:18:25;;;;;;;;;;;;;;;17.11;70.64;100242.94;5014029;28;797;-70
2022/10/02 03:21:09;;;;;;;;;;;;;;;17.12;69.95;100252.88;5014373;28;1898;-70
2022/10/02 03:23:52;;;;;;;;;;;;;;;17.13;71.05;100251.72;5014324;28;995;-71
2022/10/02 03:26:20;;;;;;;;;;;;;;;17.11;70.37;100252.03;5014022;28;1270;-70
2022/10/02 03:28:50;;;;;;;;;;;;;;;17.12;70.95;100252.88;5014500;28;802;-70
2022/10/02 03:31:17;;;;;;;;;;;;;;;17.11;70.01;100260.34;5013689;28;801;-70
2022/10/02 03:33:43;;;;;;;;;;;;;;;17.12;70.16;100256.44;5014017;28;889;-70
2022/10/02 03:36:09;;;;;;;;;;;;;;;17.12;70.28;100247.34;5013701;28;1215;-71
2022/10/02 03:38:35;;;;;;;;;;;;;;;17.11;69.88;100246.50;5014082;28;663;-70
2022/10/02 03:41:00;;;;;;;;;;;;;;;17.11;69.90;100243.75;5029098;28;1890;-71
2022/10/02 03:43:27;;;;;;;;;;;;;;;17.11;70.45;100238.22;5014028;28;861;-70
2022/10/02 03:45:52;;;;;;;;;;;;;;;17.12;70.61;100236.28;5013595;28;1354;-71
2022/10/02 03:48:18;;;;;;;;;;;;;;;17.11;70.39;100240.97;5013922;28;992;-70
2022/10/02 03:50:43;;;;;;;;;;;;;;;17.11;70.65;100238.22;5013860;28;889;-70
2022/10/02 03:53:13;;;;;;;;;;;;;;;17.11;69.93;100243.75;5013653;28;987;-71
2022/10/02 03:55:41;;;;;;;;;;;;;;;17.12;70.23;100242.63;5013695;28;1209;-71
2022/10/02 03:58:17;;;;;;;;;;;;;;;17.12;70.82;100228.78;5013630;28;813;-70
2022/10/02 04:00:45;;;;;;;;;;;;;;;17.13;70.69;100237.91;5013842;28;1963;-70
2022/10/02 04:03:14;;;;;;;;;;;;;;;17.14;70.81;100240.34;5013695;28;845;-71
2022/10/02 04:05:58;;;;;;;;;;;;;;;17.15;70.36;100243.91;5013600;28;1215;-70
2022/10/02 04:08:26;;;;;;;;;;;;;;;17.16;69.84;100235.28;5013618;28;810;-70
2022/10/02 04:10:58;;;;;;;;;;;;;;;17.18;70.80;100240.50;5013643;28;1058;-70
2022/10/02 04:13:27;;;;;;;;;;;;;;;17.20;69.87;100243.72;5013515;28;912;-70
2022/10/02 04:16:09;;;;;;;;;;;;;;;17.22;70.55;100249.75;5013113;28;1213;-69
2022/10/02 04:18:54;;;;;;;;;;;;;;;17.22;70.54;100242.25;5013541;28;920;-70
2022/10/02 04:21:33;;;;;;;;;;;;;;;17.23;70.70;100243.88;5012896;28;1890;-70
2022/10/02 04:24:21;;;;;;;;;;;;;;;17.24;70.78;100241.94;5013421;28;864;-70
2022/10/02 04:26:51;;;;;;;;;;;;;;;17.24;70.08;100237.22;5007468;28;1209;-70
2022/10/02 04:29:22;;;;;;;;;;;;;;;17.26;70.65;100247.94;5013376;28;987;-70
2022/10/02 04:31:51;;;;;;;;;;;;;;;17.25;69.40;100249.91;5013446;28;852;-69
2022/10/02 04:34:16;;;;;;;;;;;;;;;17.25;70.74;100240.78;5013407;28;1076;-69
2022/10/02 04:36:54;;;;;;;;;;;;;;;17.25;69.84;100243.56;5028029;28;1381;-70
2022/10/02 04:39:19;;;;;;;;;;;;;;;17.24;70.04;100253.81;5013377;28;798;-70
2022/10/02 04:42:02;;;;;;;;;;;;;;;17.24;70.68;100256.56;5013242;28;1893;-70
2022/10/02 04:44:46;;;;;;;;;;;;;;;17.24;70.28;100255.75;5016657;28;976;-70
2022/10/02 04:47:14;;;;;;;;;;;;;;;17.22;69.99;100253.31;5016833;28;1221;-71
2022/10/02 04:49:48;;;;;;;;;;;;;;;17.22;70.21;100258.84;5017296;28;1006;-70
2022/10/02 04:52:31;;;;;;;;;;;;;;;17.21;70.17;100256.41;5017178;28;1058;-70
2022/10/02 04:55:06;;;;;;;;;;;;;;;17.19;70.05;100255.94;5017120;28;959;-70
2022/10/02 04:57:32;;;;;;;;;;;;;;;17.18;69.84;100259.84;5016594;28;1189;-70
2022/10/02 05:00:09;;;;;;;;;;;;;;;17.18;69.76;100268.16;5016928;28;1945;-70
2022/10/02 05:02:38;;;;;;;;;;;;;;;17.16;70.48;100257.41;5017042;28;880;-71
2022/10/02 05:05:22;;;;;;;;;;;;;;;17.15;70.52;100258.56;5016921;28;975;-70
2022/10/02 05:07:56;;;;;;;;;;;;;;;17.15;69.85;100268.81;5016519;28;797;-70
2022/10/02 05:10:44;;;;;;;;;;;;;;;17.14;69.95;100247.81;5017096;28;885;-70
2022/10/02 05:13:28;;;;;;;;;;;;;;;17.13;70.16;100254.50;5016730;28;917;-70
2022/10/02 05:16:01;;;;;;;;;;;;;;;17.11;69.98;100240.16;5016396;28;1279;-70
2022/10/02 05:18:29;;;;;;;;;;;;;;;17.10;70.59;100235.81;5016602;28;972;-70
2022/10/02 05:21:08;;;;;;;;;;;;;;;17.10;70.03;100233.03;5016629;28;1898;-70
2022/10/02 05:23:48;;;;;;;;;;;;;;;17.08;69.86;100243.63;5016820;28;814;-70
2022/10/02 05:26:26;;;;;;;;;;;;;;;17.08;70.11;100240.84;5016213;28;1579;-70
2022/10/02 05:28:54;;;;;;;;;;;;;;;17.07;70.00;100240.03;5016413;28;1058;-70
2022/10/02 05:31:45;;;;;;;;;;;;;;;17.06;70.57;100240.38;5016377;28;1011;-70
2022/10/02 05:34:14;;;;;;;;;;;;;;;16.93;71.15;100231.13;5016337;28;829;-70
2022/10/02 05:36:39;;;;;;;;;;;;;;;17.07;70.84;100253.88;5016034;28;1292;-71
2022/10/02 05:39:07;;;;;;;;;;;;;;;17.07;70.71;100251.09;5016144;28;810;-70
2022/10/02 05:41:32;;;;;;;;;;;;;;;17.08;69.91;100260.22;5016112;28;1893;-70
2022/10/02 05:43:57;;;;;;;;;;;;;;;17.09;70.78;100253.53;5016428;28;932;-71
2022/10/02 05:46:24;;;;;;;;;;;;;;;17.11;70.60;100251.22;5015761;28;1197;-70
2022/10/02 05:49:04;;;;;;;;;;;;;;;17.12;70.55;100239.03;5016110;28;893;-70
2022/10/02 05:51:42;;;;;;;;;;;;;;;17.13;70.01;100244.25;5015985;28;880;-71
2022/10/02 05:54:10;;;;;;;;;;;;;;;17.15;70.69;100241.16;5015849;28;880;-70
2022/10/02 05:56:39;;;;;;;;;;;;;;;17.16;70.53;100249.13;5015322;28;1209;-70
2022/10/02 05:59:12;;;;;;;;;;;;;;;17.18;70.62;100257.09;5015844;28;856;-69
2022/10/02 06:01:42;;;;;;;;;;;;;;;17.19;70.89;100267.00;5015802;28;1895;-71
2022/10/02 06:04:19;;;;;;;;;;;;;;;17.21;69.97;100279.34;5015673;28;1078;-71
2022/10/02 06:06:46;;;;;;;;;;;;;;;17.23;69.92;100295.63;5015679;28;1201;-70
2022/10/02 06:09:14;;;;;;;;;;;;;;;17.23;70.66;100290.91;5015930;28;1086;-70
2022/10/02 06:11:41;;;;;;;;;;;;;;;17.24;70.69;100298.06;5015651;28;798;-71
2022/10/02 06:14:15;;;;;;;;;;;;;;;17.24;70.51;100300.84;5015639;28;951;-70
2022/10/02 06:16:43;;;;;;;;;;;;;;;17.25;70.87;100302.47;5015155;28;1189;-71
2022/10/02 06:19:12;;;;;;;;;;;;;;;17.25;70.73;100301.66;5015435;28;1213;-70
2022/10/02 06:21:47;;;;;;;;;;;;;;;17.25;70.77;100302.47;5015589;28;1882;-70
2022/10/02 06:24:17;;;;;;;;;;;;;;;17.26;69.55;100290.25;5015360;28;1016;-70
2022/10/02 06:26:45;;;;;;;;;;;;;;;17.25;69.68;100287.81;5015070;28;1288;-70
2022/10/02 06:29:17;;;;;;;;;;;;;;;17.24;69.99;100291.72;5015272;28;996;-71
2022/10/02 06:31:46;;;;;;;;;;;;;;;17.23;70.75;100301.16;5015299;28;1011;-70
2022/10/02 06:34:12;;;;;;;;;;;;;;;17.23;70.71;100295.63;5015247;28;1004;-70
2022/10/02 06:36:37;;;;;;;;;;;;;;;17.22;69.88;100305.06;5014878;28;1194;-70
2022/10/02 06:39:03;;;;;;;;;;;;;;;17.20;70.77;100305.38;5015114;28;972;-70
2022/10/02 06:41:32;;;;;;;;;;;;;;;17.21;70.57;100300.66;5014969;28;1890;-69
2022/10/02 06:44:11;;;;;;;;;;;;;;;17.20;70.46;100302.63;5015084;28;979;-70
2022/10/02 06:47:15;;;;;;;;;;;;;;;17.18;69.58;100304.13;5014759;28;1216;-70
2022/10/02 06:50:09;;;;;;;;;;;;;;;17.17;70.91;100306.06;4973605;28;1274;-70
2022/10/02 06:52:44;;;;;;;;;;;;;;;17.16;70.78;100312.72;4939364;28;1190;-70
2022/10/02 06:55:24;;;;;;;;;;;;;;;17.15;70.16;100315.81;5003063;28;1025;-71
2022/10/02 06:57:55;;;;;;;;;;;;;;;17.14;70.65;100322.50;5014527;28;968;-70
2022/10/02 07:00:21;;;;;;;;;;;;;;;17.14;70.72;100319.72;5014603;28;1902;-70
2022/10/02 07:02:49;;;;;;;;;;;;;;;17.13;69.82;100318.09;5014708;28;833;-69
2022/10/02 07:05:17;;;;;;;;;;;;;;;17.12;70.57;100319.25;5014649;28;1040;-70
2022/10/02 07:07:44;;;;;;;;;;;;;;;17.11;70.83;100323.94;5013328;28;1190;-70
2022/10/02 07:10:27;;;;;;;;;;;;;;;17.10;70.19;100327.06;5014565;28;833;-70
2022/10/02 07:12:52;;;;;;;;;;;;;;;17.11;70.14;100337.78;5014541;28;884;-70
2022/10/02 07:15:27;;;;;;;;;;;;;;;17.13;69.97;100340.22;5014464;28;1261;-70
2022/10/02 07:18:15;;;;;;;;;;;;;;;17.12;70.82;100336.66;5014338;28;801;-70
2022/10/02 07:20:53;;;;;;;;;;;;;;;17.13;70.63;100331.94;5014577;28;1961;-69
2022/10/02 07:23:18;;;;;;;;;;;;;;;17.12;70.81;100322.81;5014228;28;869;-70
2022/10/02 07:25:52;;;;;;;;;;;;;;;17.13;70.74;100331.94;5014209;28;1237;-70
2022/10/02 07:28:30;;;;;;;;;;;;;;;17.13;70.45;100321.69;5014442;28;896;-70
2022/10/02 07:31:11;;;;;;;;;;;;;;;17.15;70.84;100324.13;5014227;28;999;-70
2022/10/02 07:34:00;;;;;;;;;;;;;;;17.16;70.74;100331.28;5014089;28;857;-69
2022/10/02 07:36:25;;;;;;;;;;;;;;;17.18;70.33;100329.78;5014278;28;1245;-70
2022/10/02 07:39:01;;;;;;;;;;;;;;;17.21;70.57;100331.09;5014039;28;834;-70
2022/10/02 07:41:29;;;;;;;;;;;;;;;17.21;70.57;100329.16;5013957;28;1914;-70
2022/10/02 07:43:57;;;;;;;;;;;;;;;17.23;70.04;100335.16;5012065;28;2361;-70
2022/10/02 07:46:29;;;;;;;;;;;;;;;17.25;70.60;100338.44;4974407;28;1364;-70
2022/10/02 07:49:12;;;;;;;;;;;;;;;17.25;69.34;100338.44;4988269;28;786;-70
2022/10/02 07:51:46;;;;;;;;;;;;;;;17.26;69.79;100336.47;5013949;28;1020;-70
2022/10/02 07:54:20;;;;;;;;;;;;;;;17.26;70.65;100337.28;4998998;28;825;-70
2022/10/02 07:56:47;;;;;;;;;;;;;;;17.27;69.50;100336.13;4994050;28;1233;-69
2022/10/02 07:59:15;;;;;;;;;;;;;;;17.29;70.61;100335.78;4994308;28;830;-70
2022/10/02 08:01:40;;;;;;;;;;;;;;;17.29;70.21;100341.31;4994050;28;1957;-70
2022/10/02 08:04:09;;;;;;;;;;;;;;;17.30;69.71;100348.50;4994109;28;1031;-69
2022/10/02 08:06:35;;;;;;;;;;;;;;;17.29;70.22;100357.94;4993608;28;1221;-69
2022/10/02 08:09:00;;;;;;;;;;;;;;;17.28;70.02;100348.81;4993894;28;908;-69
2022/10/02 08:11:27;;;;;;;;;;;;;;;17.29;70.25;100349.63;4993948;28;818;-70
2022/10/02 08:14:02;;;;;;;;;;;;;;;17.30;69.28;100362.31;4994006;28;822;-69
2022/10/02 08:16:33;;;;;;;;;;;;;;;17.28;70.63;100357.13;4993582;28;1221;-70
2022/10/02 08:19:00;;;;;;;;;;;;;;;17.28;70.17;100359.06;4993716;28;999;-69
2022/10/02 08:21:25;;;;;;;;;;;;;;;17.28;70.46;100365.41;4993729;28;1894;-70
2022/10/02 08:23:53;;;;;;;;;;;;;;;17.29;69.80;100372.56;4993789;28;889;-70
2022/10/02 08:26:33;;;;;;;;;;;;;;;17.28;70.40;100367.38;4993513;28;1193;-72
2022/10/02 08:29:07;;;;;;;;;;;;;;;17.26;69.42;100364.94;4994113;28;833;-72
2022/10/02 08:31:32;;;;;;;;;;;;;;;17.26;69.81;100364.94;4993714;28;977;-72
2022/10/02 08:33:59;;;;;;;;;;;;;;;17.25;70.75;100365.28;4993789;28;1097;-70
2022/10/02 08:36:33;;;;;;;;;;;;;;;17.25;70.62;100374.38;4993367;28;1280;-71
2022/10/02 08:39:01;;;;;;;;;;;;;;;17.25;70.35;100373.56;4993777;28;1027;-71
2022/10/02 08:41:49;;;;;;;;;;;;;;;17.24;70.19;100370.00;4993619;28;1959;-72
2022/10/02 08:44:33;;;;;;;;;;;;;;;17.23;69.66;100381.38;4993798;28;1022;-71
2022/10/02 08:47:11;;;;;;;;;;;;;;;17.23;69.33;100375.84;4993315;28;1402;-71
2022/10/02 08:49:55;;;;;;;;;;;;;;;17.23;70.23;100373.06;4993780;28;762;-72
2022/10/02 08:52:23;;;;;;;;;;;;;;;17.22;70.31;100368.69;4993962;28;705;-71
2022/10/02 08:54:51;;;;;;;;;;;;;;;17.22;70.59;100374.22;4993572;28;809;-71
2022/10/02 08:57:25;;;;;;;;;;;;;;;17.22;70.20;100374.22;5049336;23;2228;-62
2022/10/02 08:59:59;;;;;;;;;;;;;;;17.21;69.43;100375.34;5013056;28;1906;-62
2022/10/02 09:02:43;;;;;;;;;;;;;;;17.21;69.81;100367.88;5029561;28;786;-63
2022/10/02 09:05:27;;;;;;;;;;;;;;;17.20;69.69;100371.78;5032827;28;1006;-63
2022/10/02 09:08:13;;;;;;;;;;;;;;;17.19;69.37;100370.16;5032413;28;1196;-62
2022/10/02 09:10:47;;;;;;;;;;;;;;;17.20;69.57;100368.19;5032869;28;896;-63
2022/10/02 09:13:18;;;;;;;;;;;;;;;17.19;70.04;100364.63;5032837;28;1004;-63
2022/10/02 09:15:43;;;;;;;;;;;;;;;17.20;70.47;100371.78;5032474;28;1268;-62
2022/10/02 09:18:20;;;;;;;;;;;;;;;17.22;70.53;100374.22;5032419;28;902;-63
2022/10/02 09:21:07;;;;;;;;;;;;;;;17.23;69.39;100375.84;5032576;28;1918;-63
2022/10/02 09:23:51;;;;;;;;;;;;;;;17.23;69.50;100370.31;5032766;28;944;-63
2022/10/02 09:26:16;;;;;;;;;;;;;;;17.25;69.51;100374.38;5032222;28;1208;-61
2022/10/02 09:28:54;;;;;;;;;;;;;;;17.26;70.37;100373.25;5032622;28;839;-63
2022/10/02 09:31:25;;;;;;;;;;;;;;;17.28;70.52;100378.44;5035578;28;885;-63
2022/10/02 09:34:08;;;;;;;;;;;;;;;17.28;69.42;100370.94;5036140;28;714;-62
2022/10/02 09:36:36;;;;;;;;;;;;;;;17.30;70.79;100374.19;5035637;28;1196;-62
2022/10/02 09:39:10;;;;;;;;;;;;;;;17.32;69.87;100369.16;5036101;28;869;-62
2022/10/02 09:41:35;;;;;;;;;;;;;;;17.34;69.57;100377.94;5036309;28;1902;-62
2022/10/02 09:44:12;;;;;;;;;;;;;;;17.36;69.76;100374.84;5035965;28;995;-62
2022/10/02 09:46:56;;;;;;;;;;;;;;;17.37;70.61;100376.47;5035668;28;1213;-62
2022/10/02 09:49:45;;;;;;;;;;;;;;;17.37;69.78;100377.28;5035840;28;983;-61
2022/10/02 09:52:20;;;;;;;;;;;;;;;17.38;69.16;100378.09;5035906;28;1004;-62
2022/10/02 09:55:00;;;;;;;;;;;;;;;17.40;69.22;100386.88;5036094;28;1003;-62
2022/10/02 09:57:31;;;;;;;;;;;;;;;17.40;70.07;100384.13;5035256;28;1287;-62
2022/10/02 10:00:10;;;;;;;;;;;;;;;17.40;69.21;100390.47;5035629;28;1902;-62
2022/10/02 10:02:54;;;;;;;;;;;;;;;17.40;70.40;100389.66;5035950;28;870;-62
2022/10/02 10:05:47;;;;;;;;;;;;;;;17.40;70.09;100389.66;5035564;28;976;-62
2022/10/02 10:08:23;;;;;;;;;;;;;;;17.39;70.50;100388.03;5035797;28;806;-62
2022/10/02 10:10:55;;;;;;;;;;;;;;;17.38;69.11;100387.22;5035537;28;1140;-62
2022/10/02 10:13:39;;;;;;;;;;;;;;;17.37;69.58;100382.81;5035658;28;841;-62
2022/10/02 10:16:17;;;;;;;;;;;;;;;17.38;69.82;100389.97;5035002;28;1303;-62
2022/10/02 10:18:52;;;;;;;;;;;;;;;17.39;69.22;100393.56;5035500;28;930;-62
2022/10/02 10:21:36;;;;;;;;;;;;;;;17.37;70.12;100390.28;5035271;28;1902;-62
2022/10/02 10:24:12;;;;;;;;;;;;;;;17.36;70.44;100394.19;5035255;28;1588;-62
2022/10/02 10:26:55;;;;;;;;;;;;;;;17.36;70.09;100403.31;5034835;28;1216;-62
2022/10/02 10:29:21;;;;;;;;;;;;;;;17.35;70.06;100395.38;5035171;28;924;-62
2022/10/02 10:31:49;;;;;;;;;;;;;;;17.35;69.96;100390.63;5035188;28;822;-62
2022/10/02 10:34:26;;;;;;;;;;;;;;;17.35;70.25;100396.16;5035010;28;845;-62
2022/10/02 10:40:17;;;;;;;;;;;;;;;17.34;70.33;100394.56;4973724;28;1894;-61
2022/10/02 10:42:49;;;;;;;;;;;;;;;17.34;69.39;100389.03;5032078;28;903;-60
2022/10/02 10:45:35;;;;;;;;;;;;;;;17.34;70.48;100386.25;5034837;28;931;-60
2022/10/02 10:48:09;;;;;;;;;;;;;;;17.34;69.83;100385.44;5034157;28;2148;-59
2022/10/02 10:50:37;;;;;;;;;;;;;;;17.36;70.27;100391.44;5034803;28;907;-62
2022/10/02 10:53:17;;;;;;;;;;;;;;;17.35;70.29;100393.38;5034693;28;917;-62
2022/10/02 10:56:01;;;;;;;;;;;;;;;17.35;70.45;100385.09;5034222;28;1214;-61
2022/10/02 10:58:32;;;;;;;;;;;;;;;17.36;70.12;100391.44;5034654;28;976;-62
2022/10/02 11:00:57;;;;;;;;;;;;;;;17.37;69.98;100395.81;5034535;28;1888;-62
2022/10/02 11:03:35;;;;;;;;;;;;;;;17.37;69.71;100407.72;5034515;28;947;-61
2022/10/02 11:06:15;;;;;;;;;;;;;;;17.36;69.28;100399.72;5034150;28;1223;-61
2022/10/02 11:09:07;;;;;;;;;;;;;;;17.37;70.36;100398.59;5034420;28;995;-60
2022/10/02 11:11:38;;;;;;;;;;;;;;;17.38;69.42;100409.34;5034439;28;1055;-60
2022/10/02 11:14:04;;;;;;;;;;;;;;;17.38;70.22;100398.28;5034360;28;904;-60
2022/10/02 11:16:29;;;;;;;;;;;;;;;17.40;69.99;100409.03;5033898;28;1179;-62
2022/10/02 11:19:06;;;;;;;;;;;;;;;17.40;70.32;100407.06;5034075;28;810;-62
2022/10/02 11:21:40;;;;;;;;;;;;;;;17.42;69.30;100406.75;5034080;28;1898;-62
2022/10/02 11:24:21;;;;;;;;;;;;;;;17.43;69.45;100413.09;5034249;28;904;-62
2022/10/02 11:27:01;;;;;;;;;;;;;;;17.44;69.63;100403.66;5033740;28;1210;-60
2022/10/02 11:29:38;;;;;;;;;;;;;;;17.44;69.33;100404.44;5034086;28;960;-60
2022/10/02 11:32:25;;;;;;;;;;;;;;;17.46;69.18;100398.56;5034082;28;795;-61
2022/10/02 11:35:09;;;;;;;;;;;;;;;17.47;70.02;100411.28;5033957;28;884;-59
2022/10/02 11:37:40;;;;;;;;;;;;;;;17.48;69.46;100402.66;5033491;28;1313;-60
2022/10/02 11:40:08;;;;;;;;;;;;;;;17.49;69.14;100395.97;5033732;28;1961;-60
2022/10/02 11:42:36;;;;;;;;;;;;;;;17.50;69.03;100400.38;5033872;28;805;-59
2022/10/02 11:45:11;;;;;;;;;;;;;;;17.50;70.19;100403.16;5033804;28;866;-59
2022/10/02 11:47:36;;;;;;;;;;;;;;;17.50;70.21;100403.16;5033828;28;1364;-61
2022/10/02 11:50:22;;;;;;;;;;;;;;;17.51;69.01;100413.06;5033602;28;1035;-62
2022/10/02 11:52:56;;;;;;;;;;;;;;;17.50;69.54;100405.91;5033117;28;1047;-62
2022/10/02 11:55:22;;;;;;;;;;;;;;;17.52;69.05;100408.34;5033736;28;915;-62
2022/10/02 11:58:15;;;;;;;;;;;;;;;17.51;70.10;100409.50;5033102;28;1282;-62
2022/10/02 12:00:59;;;;;;;;;;;;;;;17.50;69.19;100400.38;5010750;28;1906;-62
2022/10/02 12:03:24;;;;;;;;;;;;;;;17.49;69.80;100395.97;5033402;28;866;-62
2022/10/02 12:05:56;;;;;;;;;;;;;;;17.49;69.16;100404.28;5033178;28;1213;-60
2022/10/02 12:08:40;;;;;;;;;;;;;;;17.50;69.25;100407.88;5033429;28;797;-60
2022/10/02 12:11:19;;;;;;;;;;;;;;;17.50;69.56;100411.44;5033584;28;802;-61
2022/10/02 12:14:02;;;;;;;;;;;;;;;17.48;69.50;100413.72;5033260;28;1054;-61
2022/10/02 12:16:38;;;;;;;;;;;;;;;17.48;69.07;100413.72;5033064;28;1224;-60
2022/10/02 12:19:03;;;;;;;;;;;;;;;17.49;69.22;100417.31;5033185;28;1079;-61
2022/10/02 12:27:28;;;;;;;;;;;;;;;17.46;69.72;100424.31;5032865;28;1340;-61
2022/10/02 12:29:56;;;;;;;;;;;;;;;17.45;69.82;100419.91;5033226;28;657;-61
2022/10/02 12:32:36;;;;;;;;;;;;;;;17.46;70.06;100424.31;5033111;28;822;-61
2022/10/02 12:35:04;;;;;;;;;;;;;;;17.45;70.46;100432.91;5033416;28;908;-61
2022/10/02 12:37:30;;;;;;;;;;;;;;;17.45;69.15;100427.38;5032799;28;1187;-61
2022/10/02 12:40:14;;;;;;;;;;;;;;;17.45;70.57;100432.91;5032885;28;1910;-61
2022/10/02 12:42:39;;;;;;;;;;;;;;;17.47;69.65;100431.47;5033066;28;1015;-60
2022/10/02 12:45:13;;;;;;;;;;;;;;;17.48;69.71;100430.31;5033169;28;931;-60
2022/10/02 12:48:01;;;;;;;;;;;;;;;17.48;70.43;100430.31;5032691;28;1217;-60
2022/10/02 12:50:46;;;;;;;;;;;;;;;17.48;70.34;100432.28;5032729;28;1301;-61
2022/10/02 12:53:30;;;;;;;;;;;;;;;17.48;69.73;100429.50;5033119;28;919;-61
2022/10/02 12:56:14;;;;;;;;;;;;;;;17.50;70.27;100428.06;5032567;28;1290;-61
2022/10/02 12:58:54;;;;;;;;;;;;;;;17.50;70.31;100418.94;5032919;28;829;-60
2022/10/02 13:01:29;;;;;;;;;;;;;;;17.49;69.91;100429.19;5032729;28;1909;-61
2022/10/02 13:04:16;;;;;;;;;;;;;;;17.49;70.47;100420.88;5033370;28;912;-60
2022/10/02 13:07:00;;;;;;;;;;;;;;;17.50;69.93;100418.94;5036209;28;1198;-61
2022/10/02 13:09:25;;;;;;;;;;;;;;;17.51;69.25;100426.09;5036662;28;1050;-61
2022/10/02 13:12:17;;;;;;;;;;;;;;;17.51;69.12;100424.16;5036732;28;887;-61
2022/10/02 13:14:52;;;;;;;;;;;;;;;17.53;69.59;100421.03;5033873;28;1893;-61
2022/10/02 13:17:17;;;;;;;;;;;;;;;17.53;70.34;100419.06;5036192;28;1288;-61
2022/10/02 13:19:52;;;;;;;;;;;;;;;17.55;70.34;100422.31;5036404;28;983;-60
2022/10/02 13:22:30;;;;;;;;;;;;;;;17.57;69.18;100422.81;5036587;28;858;-60
2022/10/02 13:25:16;;;;;;;;;;;;;;;17.57;69.79;100414.53;5036498;28;849;-61
2022/10/02 13:27:48;;;;;;;;;;;;;;;17.58;69.38;100420.88;5036019;28;1296;-61
2022/10/02 13:30:17;;;;;;;;;;;;;;;17.59;69.44;100423.31;5036404;28;1410;-61
2022/10/02 13:32:51;;;;;;;;;;;;;;;17.60;69.56;100413.88;5036203;28;897;-61
2022/10/02 13:35:34;;;;;;;;;;;;;;;17.60;69.03;100413.88;5036327;28;923;-60